createdAt,value
2019-04-03T00:09:00.996Z,90.99
2019-04-03T00:19:01.035Z,91.97
2019-04-03T00:29:01.003Z,91.30
2019-04-03T00:39:00.933Z,90.62
2019-04-03T00:49:01.158Z,90.45
2019-04-03T00:59:00.957Z,90.28
2019-04-03T01:09:00.975Z,89.03
2019-04-03T01:19:00.942Z,88.85
2019-04-03T01:29:01.114Z,88.64
2019-04-03T01:39:00.948Z,88.78
2019-04-03T01:49:00.979Z,88.91
2019-04-03T01:59:01.081Z,89.53
2019-04-03T02:09:00.996Z,90.69
2019-04-03T02:19:01.007Z,90.40
2019-04-03T02:29:01.049Z,90.19
2019-04-03T02:39:01.029Z,90.57
2019-04-03T02:49:01.237Z,90.87
2019-04-03T02:59:01.047Z,90.61
2019-04-03T03:09:01.084Z,91.50
2019-04-03T03:19:01.743Z,92.64
2019-04-03T03:29:15.723Z,93.60
2019-04-03T03:39:00.999Z,92.96
2019-04-03T03:49:00.905Z,91.26
2019-04-03T03:59:00.964Z,91.68
2019-04-03T04:09:00.894Z,92.16
2019-04-03T04:19:01.020Z,92.94
2019-04-03T04:29:00.955Z,93.67
2019-04-03T04:39:00.908Z,93.63
2019-04-03T04:49:00.907Z,93.65
2019-04-03T04:59:01.016Z,93.30
2019-04-03T05:09:03.267Z,93.49
2019-04-03T05:19:09.782Z,94.32
2019-04-03T05:29:01.035Z,94.84
2019-04-03T05:39:02.706Z,95.58
2019-04-03T05:49:01.186Z,96.17
2019-04-03T05:59:02.548Z,96.44
2019-04-03T06:09:01.547Z,96.47
2019-04-03T06:29:07.757Z,94.26
2019-04-03T06:39:06.491Z,93.66
2019-04-03T06:49:08.487Z,93.00
2019-04-03T06:59:06.499Z,92.14
2019-04-03T07:19:11.421Z,90.60
2019-04-03T07:29:15.594Z,88.95
2019-04-03T07:39:12.515Z,88.72
2019-04-03T07:49:13.897Z,89.44
2019-04-03T07:59:11.899Z,89.03
2019-04-03T08:09:13.458Z,87.55
2019-04-03T08:19:11.933Z,86.95
2019-04-03T08:29:12.048Z,85.21
2019-04-03T08:39:15.170Z,85.31
2019-04-03T08:49:11.759Z,83.11
2019-04-03T08:59:12.876Z,81.29
2019-04-03T09:09:11.672Z,81.92
2019-04-03T09:19:11.668Z,80.31
2019-04-03T09:29:13.383Z,80.05
2019-04-03T09:39:13.930Z,80.05
2019-04-03T09:49:11.931Z,79.44
2019-04-03T09:59:15.024Z,77.10
2019-04-03T10:09:12.758Z,74.30
2019-04-03T10:19:13.628Z,72.54
2019-04-03T10:29:11.579Z,71.59
2019-04-03T10:39:11.583Z,70.69
2019-04-03T10:49:11.625Z,68.17
2019-04-03T10:59:13.560Z,68.64
2019-04-03T11:09:12.296Z,67.35
2019-04-03T11:19:12.790Z,66.19
2019-04-03T11:29:11.688Z,66.76
2019-04-03T11:39:14.930Z,65.53
2019-04-03T11:49:12.435Z,64.04
2019-04-03T11:59:12.961Z,61.98
2019-04-03T12:09:11.626Z,62.86
2019-04-03T12:19:15.042Z,63.88
2019-04-03T12:29:11.587Z,63.27
2019-04-03T12:39:12.029Z,64.35
2019-04-03T12:49:12.760Z,67.16
2019-04-03T12:59:11.712Z,69.84
2019-04-03T13:09:11.538Z,74.21
2019-04-03T13:19:14.857Z,74.62
2019-04-03T13:29:11.802Z,71.71
2019-04-03T13:39:11.990Z,69.20
2019-04-03T13:49:12.999Z,67.94
2019-04-03T13:59:11.886Z,66.52
2019-04-03T14:09:11.819Z,66.98
2019-04-03T14:19:15.469Z,64.60
2019-04-03T14:29:13.536Z,63.69
2019-04-03T14:39:11.585Z,62.91
2019-04-03T14:49:12.117Z,61.43
2019-04-03T14:59:13.787Z,61.37
2019-04-03T15:09:13.652Z,60.66
2019-04-03T15:19:14.105Z,61.37
2019-04-03T15:29:11.604Z,62.30
2019-04-03T15:39:11.530Z,63.97
2019-04-03T15:49:11.505Z,65.91
2019-04-03T15:59:12.163Z,65.99
2019-04-03T16:09:12.357Z,66.50
2019-04-03T16:19:12.113Z,67.30
2019-04-03T16:29:12.041Z,68.46
2019-04-03T16:39:11.712Z,74.10
2019-04-03T16:49:11.536Z,83.66
2019-04-03T16:59:11.739Z,84.52
2019-04-03T17:09:11.495Z,85.28
2019-04-03T17:19:11.515Z,84.64
2019-04-03T17:29:13.915Z,84.62
2019-04-03T17:39:11.505Z,84.28
2019-04-03T17:49:12.391Z,83.14
2019-04-03T17:59:11.443Z,80.98
2019-04-03T18:09:12.436Z,79.68
2019-04-03T18:19:11.479Z,79.66
2019-04-03T18:29:11.466Z,79.20
2019-04-03T18:39:11.419Z,79.65
2019-04-03T18:49:11.489Z,79.85
2019-04-03T18:59:11.461Z,80.47
2019-04-03T19:09:11.518Z,80.35
2019-04-03T19:19:11.665Z,80.09
2019-04-03T19:29:11.452Z,80.06
2019-04-03T19:39:11.522Z,80.49
2019-04-03T19:49:11.443Z,80.63
2019-04-03T19:59:11.507Z,81.24
2019-04-03T20:09:11.499Z,81.55
2019-04-03T20:19:11.417Z,82.23
2019-04-03T20:29:11.435Z,82.09
2019-04-03T20:39:11.462Z,81.88
2019-04-03T20:49:11.461Z,81.85
2019-04-03T20:59:12.111Z,82.27
2019-04-03T21:09:11.453Z,82.22
2019-04-03T21:19:11.491Z,81.81
2019-04-03T21:29:11.461Z,81.49
2019-04-03T21:39:12.955Z,81.77
2019-04-03T21:49:11.676Z,82.06
2019-04-03T21:59:11.528Z,82.15
2019-04-03T22:09:11.466Z,81.27
2019-04-03T22:19:11.455Z,80.15
2019-04-03T22:29:11.494Z,79.86
2019-04-03T22:39:13.637Z,80.52
2019-04-03T22:49:11.430Z,81.11
2019-04-03T22:59:11.491Z,81.77
2019-04-03T23:09:11.421Z,82.55
2019-04-03T23:19:11.369Z,83.15
2019-04-03T23:29:11.509Z,83.92
2019-04-03T23:39:11.404Z,84.66
2019-04-03T23:49:11.374Z,84.64
2019-04-03T23:59:13.154Z,84.59
